Terminal Aerodrome Forecast
Issued by NWS Greer, SC

Home | Current Version | Previous Version | Text Only | Print | Product List | Glossary On
Versions: 1 2 3 4 5 6 7 8 9 10 11 12 13 14 15 16 17 18
000
FTUS42 KGSP 240216 AAB
TAFGSP
TAF AMD
KGSP 240216Z 2402/2424 03012G19KT 6SM SHRA BR OVC008
     FM240400 04012G20KT 3SM SHRA BR OVC006
      TEMPO 2404/2407 1SM +SHRA BR OVC003
     FM240700 04010G18KT 3SM SHRA BR OVC003
     FM241700 03012G20KT 4SM -SHRA BR OVC005
     FM242000 03011G19KT 5SM -SHRA BR OVC008=

USA.gov is the U.S. government's official web portal to all federal, state and local government web resources and services.